Time;durP1;ratioP1;P1;durP2;ratioP2;P2;SDS_P1;SDS_P2;PMS_P1;PMS_P2;Temp;Humidity;BMP_temperature;BMP_pressure;BME280_temperature;BME280_humidity;BME280_pressure;Samples;Min_cycle;Max_cycle;Signal;HPM_P1;HPM_P2
2022/02/02 00:04:45;;;;;;;19.83;4.80;;;8.20;99.90;;;;;;5053695;28;20187;-84
2022/02/02 00:10:03;;;;;;;16.77;3.67;;;8.10;99.90;;;;;;5054422;28;20251;-84
2022/02/02 00:12:44;;;;;;;20.75;4.20;;;8.20;99.90;;;;;;5052607;28;20216;-84
2022/02/02 00:23:19;;;;;;;19.55;5.15;;;7.60;99.90;;;;;;5054375;28;20196;-83
2022/02/02 00:25:54;;;;;;;21.80;5.10;;;7.50;99.90;;;;;;5054053;28;20654;-84
2022/02/02 00:28:24;;;;;;;14.02;3.60;;;7.50;99.90;;;;;;5052776;28;20181;-83
2022/02/02 00:30:50;;;;;;;22.08;4.47;;;7.50;99.90;;;;;;5053633;28;20178;-84
2022/02/02 00:33:24;;;;;;;19.53;3.67;;;7.50;99.90;;;;;;5054429;28;20264;-84
2022/02/02 00:38:45;;;;;;;31.35;4.15;;;7.50;99.90;;;;;;5045204;28;20193;-84
2022/02/02 00:41:10;;;;;;;19.45;4.85;;;7.50;99.90;;;;;;5052354;28;20313;-84
2022/02/02 00:43:39;;;;;;;21.67;4.67;;;7.50;99.90;;;;;;5053088;28;20227;-84
2022/02/02 00:46:04;;;;;;;19.30;4.60;;;7.50;99.90;;;;;;5053858;28;20183;-84
2022/02/02 00:48:32;;;;;;;33.20;5.30;;;7.50;99.90;;;;;;5053884;28;20182;-83
2022/02/02 00:50:58;;;;;;;21.02;5.40;;;7.50;99.90;;;;;;5053813;28;20181;-84
2022/02/02 00:53:23;;;;;;;31.23;5.80;;;7.60;99.90;;;;;;5052739;28;20229;-83
2022/02/02 00:55:50;;;;;;;22.93;4.57;;;7.70;99.90;;;;;;5036328;28;20174;-83
2022/02/02 00:58:16;;;;;;;23.52;4.53;;;7.70;99.90;;;;;;5052800;28;20280;-83
2022/02/02 01:00:42;;;;;;;18.13;4.20;;;7.70;99.90;;;;;;5053487;28;20670;-83
2022/02/02 01:03:08;;;;;;;23.13;4.70;;;7.70;99.90;;;;;;5053673;28;20213;-83
2022/02/02 01:05:33;;;;;;;13.60;4.03;;;7.60;99.90;;;;;;5052383;28;20428;-83
2022/02/02 01:10:38;;;;;;;19.07;5.23;;;7.70;99.90;;;;;;5053917;28;20182;-83
2022/02/02 01:13:22;;;;;;;26.75;5.05;;;7.80;99.90;;;;;;5056547;28;20244;-83
2022/02/02 01:21:17;;;;;;;18.93;4.50;;;7.60;99.90;;;;;;5058865;28;20171;-83
2022/02/02 01:29:11;;;;;;;21.42;5.38;;;7.50;99.90;;;;;;5057745;28;20239;-83
2022/02/02 01:31:36;;;;;;;21.10;4.50;;;7.60;99.90;;;;;;5056436;28;20297;-83
2022/02/02 01:34:02;;;;;;;38.47;4.87;;;7.60;99.90;;;;;;5056559;28;20175;-83
2022/02/02 01:36:28;;;;;;;26.33;5.90;;;7.60;99.90;;;;;;5057375;28;20185;-84
2022/02/02 01:38:55;;;;;;;24.53;4.80;;;7.60;99.90;;;;;;5056857;28;20175;-83
2022/02/02 01:41:27;;;;;;;33.38;5.43;;;7.50;99.90;;;;;;5056580;28;20523;-83
2022/02/02 01:44:01;;;;;;;19.63;5.10;;;7.50;99.90;;;;;;5056332;28;20185;-82
2022/02/02 01:46:31;;;;;;;25.05;4.10;;;7.50;99.90;;;;;;5055609;28;20220;-83
2022/02/02 01:51:44;;;;;;;17.75;4.15;;;7.50;99.90;;;;;;5056542;28;20689;-83
2022/02/02 01:54:56;;;;;;;28.08;5.07;;;7.50;99.90;;;;;;5056590;28;20161;-83
2022/02/02 01:57:03;;;;;;;23.50;5.30;;;7.50;99.90;;;;;;5050548;28;20592;-83
2022/02/02 01:59:48;;;;;;;22.13;3.80;;;7.50;99.90;;;;;;5056276;28;20172;-83
2022/02/02 02:02:14;;;;;;;24.48;4.32;;;7.50;99.90;;;;;;5056083;28;20202;-83
2022/02/02 02:04:39;;;;;;;22.93;4.60;;;7.50;99.90;;;;;;5054875;28;20182;-83
2022/02/02 02:07:06;;;;;;;26.50;5.40;;;7.50;99.90;;;;;;5056243;28;20182;-84
2022/02/02 02:09:31;;;;;;;27.15;4.53;;;7.50;99.90;;;;;;5056181;28;20176;-83
2022/02/02 02:12:02;;;;;;;19.80;4.30;;;7.40;99.90;;;;;;5055694;28;20239;-83
2022/02/02 02:17:13;;;;;;;15.80;3.75;;;7.40;99.90;;;;;;5056215;28;20169;-84
2022/02/02 02:19:43;;;;;;;19.65;4.13;;;7.40;99.90;;;;;;5056011;28;20174;-83
2022/02/02 02:22:12;;;;;;;20.52;3.70;;;7.40;99.90;;;;;;5054298;28;20213;-83
2022/02/02 02:24:39;;;;;;;20.70;4.80;;;7.40;99.90;;;;;;5055938;28;20174;-83
2022/02/02 02:27:06;;;;;;;24.50;4.13;;;7.50;99.90;;;;;;5054787;28;20552;-83
2022/02/02 02:56:17;;;;;;;31.02;4.95;;;7.60;99.90;;;;;;5055725;28;20181;-83
2022/02/02 02:59:00;;;;;;;14.43;4.10;;;7.60;99.90;;;;;;5055248;28;20171;-83
2022/02/02 03:31:54;;;;;;;17.90;3.85;;;7.50;99.90;;;;;;5054181;28;20709;-83
2022/02/02 03:49:19;;;;;;;19.60;4.35;;;7.50;99.90;;;;;;5038931;28;20185;-83
2022/02/02 03:51:36;;;;;;;26.67;3.47;;;7.50;99.90;;;;;;5053139;28;20592;-83
2022/02/02 03:54:29;;;;;;;19.77;4.03;;;7.50;99.90;;;;;;5054370;28;20169;-82
2022/02/02 03:59:33;;;;;;;27.77;5.32;;;7.60;99.90;;;;;;5054071;28;20553;-81
2022/02/02 04:05:33;;;;;;;25.40;5.17;;;7.60;99.90;;;;;;5054205;28;20189;-81
2022/02/02 04:07:23;;;;;;;18.77;4.70;;;7.60;99.90;;;;;;5044780;28;20190;-82
2022/02/02 04:09:49;;;;;;;25.02;4.70;;;7.60;99.90;;;;;;5052569;28;20570;-83
2022/02/02 04:12:35;;;;;;;19.85;4.53;;;7.60;99.90;;;;;;5053383;28;20634;-83
2022/02/02 04:55:55;;;;;;;22.33;4.93;;;7.60;99.90;;;;;;5053503;28;20187;-82
2022/02/02 04:58:50;;;;;;;26.88;5.10;;;7.50;99.90;;;;;;5053259;28;20173;-82
2022/02/02 05:06:35;;;;;;;23.27;4.80;;;7.50;99.90;;;;;;5053260;28;20166;-81
2022/02/02 05:09:17;;;;;;;31.70;5.15;;;7.50;99.90;;;;;;5053087;28;20158;-82
2022/02/02 05:12:28;;;;;;;31.17;5.95;;;7.60;99.90;;;;;;5052630;28;20212;-81
2022/02/02 05:44:55;;;;;;;32.50;6.32;;;7.50;99.90;;;;;;5052807;28;20165;-81
2022/02/02 05:53:07;;;;;;;12.85;3.25;;;7.50;99.90;;;;;;5010918;28;20223;-82
2022/02/02 05:55:43;;;;;;;29.90;5.83;;;7.50;99.90;;;;;;5043898;28;20195;-80
2022/02/02 05:58:09;;;;;;;21.00;5.20;;;7.50;99.90;;;;;;5055136;28;20176;-82
2022/02/02 06:00:37;;;;;;;22.20;4.30;;;7.40;99.90;;;;;;5056244;28;20178;-81
2022/02/02 06:03:09;;;;;;;23.92;6.00;;;7.40;99.90;;;;;;5056032;28;20190;-80
2022/02/02 06:05:37;;;;;;;24.33;4.72;;;7.40;99.90;;;;;;5056281;28;20150;-80
2022/02/02 06:08:07;;;;;;;26.25;5.30;;;7.40;99.90;;;;;;5056103;28;20258;-80
2022/02/02 06:10:34;;;;;;;21.40;5.53;;;7.50;99.90;;;;;;5054696;28;20645;-81
2022/02/02 06:13:01;;;;;;;15.90;4.60;;;7.40;99.90;;;;;;5055568;28;20210;-81
2022/02/02 06:15:27;;;;;;;24.17;4.78;;;7.40;99.90;;;;;;5056104;28;20166;-82
2022/02/02 06:17:53;;;;;;;26.08;4.82;;;7.50;99.90;;;;;;5056120;28;20567;-82
2022/02/02 06:20:20;;;;;;;26.50;4.93;;;7.50;99.90;;;;;;5055902;28;20177;-81
2022/02/02 06:22:59;;;;;;;25.88;4.75;;;7.50;99.90;;;;;;5054012;28;20956;-81
2022/02/02 06:25:36;;;;;;;13.38;4.05;;;7.50;99.90;;;;;;5055832;28;20175;-80
2022/02/02 06:28:05;;;;;;;19.08;4.03;;;7.50;99.90;;;;;;5054368;28;20199;-82
2022/02/02 06:30:32;;;;;;;14.88;4.15;;;7.50;99.90;;;;;;5054421;28;20178;-81
2022/02/02 06:33:11;;;;;;;20.35;3.97;;;7.40;99.90;;;;;;5037722;28;20220;-81
2022/02/02 06:35:37;;;;;;;38.80;5.22;;;7.50;99.90;;;;;;5055638;28;20181;-80
2022/02/02 06:38:04;;;;;;;16.50;3.97;;;7.50;99.90;;;;;;5056006;28;20185;-82
2022/02/02 06:40:30;;;;;;;17.40;4.97;;;7.60;99.90;;;;;;5055630;28;20253;-81
2022/02/02 06:42:57;;;;;;;19.73;3.30;;;7.50;99.90;;;;;;5055336;28;20203;-80
2022/02/02 06:45:24;;;;;;;21.63;5.07;;;7.60;99.90;;;;;;5055343;28;20178;-80
2022/02/02 06:47:49;;;;;;;21.67;4.85;;;7.60;99.90;;;;;;5055576;28;20599;-80
2022/02/02 06:55:47;;;;;;;16.55;4.40;;;7.50;99.90;;;;;;5055399;28;20614;-82
2022/02/02 06:58:24;;;;;;;27.33;5.15;;;7.60;99.90;;;;;;5055291;28;20277;-82
2022/02/02 07:01:06;;;;;;;15.10;4.80;;;7.80;99.90;;;;;;5053964;28;20607;-81
2022/02/02 07:03:53;;;;;;;31.67;4.45;;;7.60;99.90;;;;;;5055058;28;20194;-81
2022/02/02 07:06:40;;;;;;;23.48;5.72;;;7.60;99.90;;;;;;5055112;28;20198;-82
2022/02/02 07:12:19;;;;;;;21.48;5.32;;;7.60;99.90;;;;;;5031518;28;20236;-79
2022/02/02 07:20:05;;;;;;;25.63;5.22;;;7.70;99.90;;;;;;5054941;28;20178;-82
2022/02/02 07:30:15;;;;;;;15.43;4.50;;;7.70;99.90;;;;;;5054779;28;20184;-82
2022/02/02 07:32:50;;;;;;;29.42;4.93;;;7.70;99.90;;;;;;5054120;28;20253;-83
2022/02/02 07:35:28;;;;;;;32.25;4.95;;;7.60;99.90;;;;;;5054525;28;20172;-80
2022/02/02 07:38:01;;;;;;;19.33;5.82;;;7.60;99.90;;;;;;5053370;28;20188;-79
2022/02/02 07:40:29;;;;;;;24.60;4.38;;;7.70;99.90;;;;;;5054474;28;20212;-81
2022/02/02 07:43:01;;;;;;;24.58;4.47;;;7.70;99.90;;;;;;5054037;28;20281;-82
2022/02/02 07:45:30;;;;;;;21.95;4.90;;;7.70;99.90;;;;;;5054337;28;20211;-80
2022/02/02 07:48:00;;;;;;;22.33;4.18;;;7.70;99.90;;;;;;5054058;28;20206;-81
2022/02/02 07:50:29;;;;;;;14.90;4.70;;;7.80;99.90;;;;;;5054317;28;20170;-82
2022/02/02 07:52:57;;;;;;;23.83;5.10;;;7.70;99.90;;;;;;5053821;28;20207;-79
2022/02/02 07:55:26;;;;;;;16.55;3.53;;;7.60;99.90;;;;;;5054147;28;20174;-81
2022/02/02 07:57:57;;;;;;;25.55;4.90;;;7.70;99.90;;;;;;5052897;28;20592;-81
2022/02/02 08:00:23;;;;;;;16.48;2.60;;;7.70;99.90;;;;;;5054361;28;20202;-80
2022/02/02 08:05:29;;;;;;;28.63;5.40;;;7.70;99.90;;;;;;5052964;28;20565;-80
2022/02/02 08:10:22;;;;;;;29.03;4.20;;;7.60;99.90;;;;;;5054151;28;20174;-81
2022/02/02 08:12:53;;;;;;;17.02;4.78;;;7.60;99.90;;;;;;5053368;28;20473;-80
2022/02/02 08:15:20;;;;;;;27.02;6.18;;;7.70;99.90;;;;;;5053835;28;20255;-82
2022/02/02 08:17:48;;;;;;;17.95;3.67;;;7.80;99.90;;;;;;5053700;28;20174;-81
2022/02/02 08:20:14;;;;;;;30.13;5.20;;;7.80;99.90;;;;;;5053660;28;20173;-79
2022/02/02 08:22:41;;;;;;;20.52;4.55;;;7.70;99.90;;;;;;5053264;28;20567;-81
2022/02/02 08:25:12;;;;;;;19.95;5.10;;;7.70;99.90;;;;;;5053650;28;20257;-81
2022/02/02 08:27:42;;;;;;;25.15;4.95;;;7.70;99.90;;;;;;5053503;28;20175;-81
2022/02/02 08:30:13;;;;;;;11.32;3.40;;;7.80;99.90;;;;;;5052179;28;20690;-79
2022/02/02 08:32:50;;;;;;;25.10;5.10;;;7.80;99.90;;;;;;5053032;28;20220;-81
2022/02/02 08:35:20;;;;;;;23.30;5.00;;;7.70;99.90;;;;;;5053511;28;20156;-80
2022/02/02 08:37:50;;;;;;;27.42;4.75;;;7.70;99.90;;;;;;5053269;28;20332;-80
2022/02/02 08:40:24;;;;;;;28.65;5.97;;;7.70;99.90;;;;;;5052139;28;20184;-81
2022/02/02 08:42:50;;;;;;;15.98;4.22;;;7.70;99.90;;;;;;5053128;28;20203;-82
2022/02/02 08:45:28;;;;;;;25.98;5.03;;;7.80;99.90;;;;;;5053314;28;20181;-81
2022/02/02 08:48:01;;;;;;;17.67;4.80;;;7.80;99.90;;;;;;5053137;28;20186;-79
2022/02/02 08:50:44;;;;;;;20.88;5.28;;;7.90;99.90;;;;;;5053184;28;20629;-82
2022/02/02 08:53:31;;;;;;;27.35;5.45;;;7.90;99.90;;;;;;5051484;28;20253;-81
2022/02/02 08:58:45;;;;;;;24.35;5.78;;;8.10;99.90;;;;;;5053243;28;20176;-79
2022/02/02 09:01:33;;;;;;;18.13;5.15;;;8.30;99.90;;;;;;5052815;28;20253;-80
2022/02/02 09:06:43;;;;;;;22.90;4.75;;;8.40;99.90;;;;;;5053493;28;20228;-80
2022/02/02 09:09:21;;;;;;;19.90;4.17;;;8.40;99.90;;;;;;5053139;28;20173;-79
2022/02/02 09:36:11;;;;;;;27.23;5.13;;;8.70;99.90;;;;;;5056887;28;20170;-79
2022/02/02 09:38:36;;;;;;;30.80;5.93;;;8.80;99.90;;;;;;5056570;28;20276;-80
2022/02/02 09:43:31;;;;;;;17.90;5.38;;;8.90;99.90;;;;;;5056925;28;20657;-82
2022/02/02 09:46:08;;;;;;;13.98;5.20;;;8.90;99.90;;;;;;5056706;28;20212;-80
2022/02/02 09:48:49;;;;;;;32.30;5.68;;;8.90;99.90;;;;;;5056504;28;20162;-79
2022/02/02 09:51:22;;;;;;;21.42;5.47;;;9.00;99.90;;;;;;5056308;28;20179;-82
2022/02/02 09:53:58;;;;;;;28.38;5.60;;;9.00;99.90;;;;;;5056842;28;20158;-82
2022/02/02 10:10:04;;;;;;;25.10;5.63;;;9.50;99.90;;;;;;5056411;28;20190;-81
2022/02/02 10:15:17;;;;;;;29.02;7.47;;;9.50;99.90;;;;;;5056520;28;20174;-79
2022/02/02 10:17:44;;;;;;;26.88;4.35;;;9.60;99.90;;;;;;5056327;28;20262;-80
2022/02/02 10:20:24;;;;;;;17.83;4.53;;;9.70;99.90;;;;;;5056057;28;20166;-81
2022/02/02 10:22:51;;;;;;;21.90;4.28;;;10.00;99.90;;;;;;5055667;28;20553;-83
2022/02/02 10:25:29;;;;;;;24.13;5.38;;;10.00;99.90;;;;;;5055856;28;20295;-81
2022/02/02 10:28:15;;;;;;;22.65;5.68;;;9.80;99.90;;;;;;5055909;28;20212;-82
2022/02/02 10:30:46;;;;;;;27.63;4.90;;;9.90;99.90;;;;;;5055827;28;20178;-81
2022/02/02 10:33:18;;;;;;;17.15;4.32;;;9.80;99.90;;;;;;5055753;28;20644;-81
2022/02/02 10:35:49;;;;;;;25.48;5.10;;;9.70;99.90;;;;;;5055729;28;20250;-81
2022/02/02 10:38:18;;;;;;;13.85;4.35;;;9.80;99.90;;;;;;5054623;28;20200;-80
2022/02/02 10:40:53;;;;;;;27.42;4.30;;;9.80;99.90;;;;;;5055439;28;20268;-82
2022/02/02 10:43:38;;;;;;;18.60;4.07;;;9.90;99.90;;;;;;5054371;28;20228;-84
2022/02/02 10:46:16;;;;;;;30.65;6.35;;;9.70;99.90;;;;;;5055643;28;20588;-81
2022/02/02 10:48:52;;;;;;;28.42;5.25;;;9.80;99.90;;;;;;5055623;28;20527;-81
2022/02/02 10:51:32;;;;;;;29.67;5.10;;;9.70;99.90;;;;;;5054978;28;20168;-81
2022/02/02 10:56:38;;;;;;;20.90;5.15;;;9.80;99.90;;;;;;5055510;28;20178;-80
2022/02/02 10:59:16;;;;;;;17.88;3.97;;;10.20;99.90;;;;;;5055529;28;20236;-81
2022/02/02 11:01:49;;;;;;;22.80;4.85;;;10.30;99.90;;;;;;5055233;28;20277;-80
2022/02/02 11:07:01;;;;;;;17.45;4.20;;;9.90;99.90;;;;;;5053975;28;20201;-80
2022/02/02 11:09:28;;;;;;;16.50;4.68;;;9.90;99.90;;;;;;5054641;28;20195;-80
2022/02/02 11:11:56;;;;;;;22.88;5.80;;;9.70;99.90;;;;;;5054312;28;20291;-79
2022/02/02 11:14:30;;;;;;;25.80;5.32;;;9.70;99.90;;;;;;5053326;28;20182;-79
2022/02/02 11:17:04;;;;;;;29.60;6.63;;;9.80;99.90;;;;;;5055065;28;20185;-80
2022/02/02 11:19:34;;;;;;;19.70;4.97;;;9.90;99.90;;;;;;5055050;28;20550;-80
2022/02/02 11:22:30;;;;;;;23.60;6.38;;;10.30;99.90;;;;;;5054606;28;20197;-82
2022/02/02 11:25:02;;;;;;;17.25;5.18;;;10.20;99.90;;;;;;5053689;28;20186;-81
2022/02/02 11:27:35;;;;;;;25.88;6.20;;;10.20;99.90;;;;;;5054673;28;20178;-79
2022/02/02 11:30:22;;;;;;;24.30;6.47;;;10.00;99.90;;;;;;5054816;28;20255;-80
2022/02/02 11:32:52;;;;;;;24.13;5.22;;;10.20;99.90;;;;;;5054315;28;20214;-80
2022/02/02 11:35:38;;;;;;;13.90;4.22;;;10.40;99.90;;;;;;5054422;28;20170;-81
2022/02/02 11:38:08;;;;;;;22.92;5.55;;;10.40;99.90;;;;;;5054672;28;20167;-80
2022/02/02 11:40:42;;;;;;;31.23;5.97;;;10.80;99.90;;;;;;5054391;28;20173;-79
2022/02/02 11:43:14;;;;;;;18.35;4.57;;;10.90;99.90;;;;;;5053053;28;20281;-79
2022/02/02 11:45:48;;;;;;;24.08;6.68;;;10.60;99.90;;;;;;5054291;28;20171;-80
2022/02/02 11:48:54;;;;;;;19.63;5.13;;;11.00;99.90;;;;;;5054428;28;20237;-80
2022/02/02 11:51:40;;;;;;;22.60;5.60;;;11.10;99.90;;;;;;5053937;28;20185;-81
2022/02/02 11:54:07;;;;;;;20.45;6.30;;;10.80;99.90;;;;;;5053151;28;20193;-81
2022/02/02 11:57:03;;;;;;;21.25;5.55;;;10.80;99.90;;;;;;5054027;28;20519;-79
2022/02/02 12:05:32;;;;;;;17.15;4.82;;;10.90;99.90;;;;;;5052333;28;20185;-80
2022/02/02 12:19:58;;;;;;;14.80;4.40;;;11.90;99.90;;;;;;5053924;28;20396;-79
2022/02/02 12:47:13;;;;;;;15.30;5.25;;;11.50;99.90;;;;;;5058847;28;20181;-79
2022/02/02 12:58:06;;;;;;;12.82;4.03;;;12.40;99.90;;;;;;5053593;28;20203;-79
2022/02/02 13:00:38;;;;;;;10.18;3.55;;;12.60;99.90;;;;;;5053747;28;20173;-80
2022/02/02 13:03:06;;;;;;;10.05;2.72;;;12.20;99.90;;;;;;5053219;28;20205;-79
2022/02/02 13:05:34;;;;;;;16.40;3.83;;;12.00;99.90;;;;;;5053461;28;20180;-80
2022/02/02 13:08:00;;;;;;;11.85;3.40;;;12.20;99.90;;;;;;5052019;28;20175;-80
2022/02/02 13:10:31;;;;;;;18.00;4.50;;;12.10;99.90;;;;;;5053994;28;20212;-79
2022/02/02 13:13:10;;;;;;;13.77;3.55;;;12.20;99.90;;;;;;5053050;28;20223;-81
2022/02/02 13:23:27;;;;;;;13.73;3.67;;;11.20;99.90;;;;;;5053831;28;20194;-80
2022/02/02 13:26:01;;;;;;;19.05;4.15;;;10.90;99.90;;;;;;5052277;28;20522;-81
2022/02/02 13:28:56;;;;;;;17.60;4.57;;;11.10;99.90;;;;;;5052812;28;20190;-80
2022/02/02 13:31:26;;;;;;;13.13;4.83;;;11.20;99.90;;;;;;5052522;28;20187;-82
2022/02/02 13:34:07;;;;;;;14.50;4.10;;;10.90;99.90;;;;;;5053562;28;20166;-80
2022/02/02 13:42:36;;;;;;;14.55;3.90;;;10.90;99.90;;;;;;5053248;28;20174;-80
2022/02/02 14:01:40;;;;;;;20.38;5.10;;;10.80;99.90;;;;;;5052729;28;20178;-80
2022/02/02 14:09:34;;;;;;;16.50;5.22;;;12.00;99.90;;;;;;5053004;28;20182;-80
2022/02/02 14:33:29;;;;;;;16.50;3.35;;;12.60;99.90;;;;;;5056072;28;20202;-79
2022/02/02 14:35:58;;;;;;;13.93;4.63;;;12.40;99.90;;;;;;5056067;28;20187;-79
2022/02/02 14:38:24;;;;;;;13.85;3.17;;;12.50;99.90;;;;;;5055880;28;20167;-78
2022/02/02 14:43:23;;;;;;;10.90;3.57;;;12.60;99.90;;;;;;5054917;28;20204;-79
2022/02/02 14:45:53;;;;;;;8.30;3.63;;;12.80;99.90;;;;;;5054859;28;20178;-80
2022/02/02 14:48:32;;;;;;;12.20;3.28;;;12.70;99.90;;;;;;5055737;28;20352;-79
2022/02/02 14:53:48;;;;;;;8.32;2.83;;;12.30;99.90;;;;;;5056274;28;20225;-77
2022/02/02 15:28:11;;;;;;;18.75;4.63;;;10.20;99.90;;;;;;5054615;28;20280;-79
2022/02/02 15:31:00;;;;;;;17.75;4.65;;;10.10;99.90;;;;;;5052688;28;20210;-79
2022/02/02 15:33:29;;;;;;;20.05;4.38;;;10.10;99.90;;;;;;5054330;28;20209;-79
2022/02/02 15:39:16;;;;;;;17.42;4.10;;;9.90;99.90;;;;;;5012451;28;20707;-81
2022/02/02 15:55:32;;;;;;;20.08;5.05;;;9.40;99.90;;;;;;5054117;28;20196;-80
2022/02/02 15:58:12;;;;;;;18.55;5.30;;;9.30;99.90;;;;;;5053919;28;20213;-81
2022/02/02 16:03:14;;;;;;;15.07;4.90;;;9.20;99.90;;;;;;5054228;28;20236;-78
2022/02/02 16:05:50;;;;;;;13.63;4.53;;;9.00;99.90;;;;;;5032814;28;20197;-78
2022/02/02 16:08:20;;;;;;;17.08;6.40;;;8.90;99.90;;;;;;5034072;28;20185;-78
2022/02/02 16:10:59;;;;;;;13.50;5.00;;;8.90;99.90;;;;;;5032982;28;20214;-77
2022/02/02 16:13:35;;;;;;;23.17;6.05;;;8.90;99.90;;;;;;5035387;28;20221;-78
2022/02/02 16:18:56;;;;;;;17.30;6.50;;;8.70;99.90;;;;;;5054062;28;20166;-78
2022/02/02 16:35:48;;;;;;;18.13;6.10;;;8.80;99.90;;;;;;5053675;28;20192;-78
2022/02/02 16:38:13;;;;;;;15.80;5.90;;;8.80;99.90;;;;;;5053330;28;20563;-78
2022/02/02 16:40:42;;;;;;;19.45;7.93;;;8.90;99.90;;;;;;5051808;28;20711;-79
2022/02/02 16:43:18;;;;;;;20.20;6.30;;;8.90;99.90;;;;;;5053367;28;20198;-78
2022/02/02 16:45:52;;;;;;;22.35;6.88;;;8.90;99.90;;;;;;5051933;28;20194;-79
2022/02/02 16:48:19;;;;;;;23.90;6.72;;;8.90;99.90;;;;;;5051905;28;20586;-79
2022/02/02 16:50:48;;;;;;;11.93;6.63;;;8.90;99.90;;;;;;5053027;28;20182;-79
2022/02/02 17:31:06;;;;;;;18.13;7.35;;;8.50;99.90;;;;;;5052966;28;20189;-78
2022/02/02 17:38:45;;;;;;;12.68;6.10;;;8.30;99.90;;;;;;5052832;28;20589;-79
2022/02/02 18:21:09;;;;;;;24.13;14.55;;;8.00;99.90;;;;;;5055571;28;20192;-80
2022/02/02 18:26:23;;;;;;;16.50;8.07;;;7.90;99.90;;;;;;5056354;28;20212;-81
2022/02/02 18:36:53;;;;;;;18.27;9.77;;;7.80;99.90;;;;;;5055637;28;20568;-79
2022/02/02 18:47:33;;;;;;;16.33;9.02;;;8.00;99.90;;;;;;5055276;28;20183;-80
2022/02/02 18:50:09;;;;;;;14.73;8.27;;;8.00;99.90;;;;;;5055534;28;20176;-79
2022/02/02 18:58:05;;;;;;;11.00;7.50;;;7.90;99.90;;;;;;5055534;28;20231;-80
2022/02/02 20:04:58;;;;;;;11.35;9.35;;;8.60;99.90;;;;;;5074439;28;20700;-79
2022/02/02 20:12:29;;;;;;;13.53;10.03;;;8.70;99.90;;;;;;5073424;28;20213;-78
2022/02/02 20:14:55;;;;;;;15.93;10.07;;;8.70;99.90;;;;;;5065515;28;20459;-78
2022/02/02 20:17:23;;;;;;;13.52;10.63;;;8.60;99.90;;;;;;5053027;28;20190;-78
2022/02/02 20:19:56;;;;;;;18.95;10.55;;;8.70;99.90;;;;;;5053932;28;20182;-77
2022/02/02 20:22:24;;;;;;;14.65;11.10;;;8.70;99.90;;;;;;5053421;28;20548;-78
2022/02/02 20:25:01;;;;;;;17.23;12.35;;;8.70;99.90;;;;;;5053832;28;20199;-78
2022/02/02 20:27:31;;;;;;;23.30;12.75;;;8.70;99.90;;;;;;5053628;28;20535;-78
2022/02/02 20:29:57;;;;;;;19.35;12.13;;;8.70;99.90;;;;;;5052263;28;20205;-78
2022/02/02 20:32:23;;;;;;;15.43;11.30;;;8.70;99.90;;;;;;5052718;28;20237;-77
2022/02/02 20:34:51;;;;;;;15.65;10.23;;;8.70;99.90;;;;;;5052573;28;20170;-78
2022/02/02 20:37:19;;;;;;;21.27;11.60;;;8.70;99.90;;;;;;5053199;28;20265;-78
2022/02/02 20:40:05;;;;;;;20.65;13.10;;;8.70;99.90;;;;;;5053413;28;20196;-78
2022/02/02 20:42:37;;;;;;;72.60;41.75;;;8.70;99.90;;;;;;5051079;28;20208;-78
2022/02/02 21:14:45;;;;;;;18.88;12.65;;;8.70;99.90;;;;;;5033321;28;20190;-78
2022/02/02 21:17:19;;;;;;;18.52;12.40;;;8.60;99.90;;;;;;5033322;28;20167;-78
2022/02/02 21:22:21;;;;;;;30.38;14.23;;;8.70;99.90;;;;;;5072495;28;20565;-78
2022/02/02 21:25:06;;;;;;;18.17;13.35;;;8.80;99.90;;;;;;5063988;28;20273;-78
2022/02/02 21:27:39;;;;;;;18.58;12.43;;;8.80;99.90;;;;;;5053043;28;20261;-77
2022/02/02 21:30:06;;;;;;;20.70;14.15;;;8.70;99.90;;;;;;5056960;28;20724;-77
2022/02/02 21:32:32;;;;;;;19.23;13.68;;;8.80;99.90;;;;;;5065556;28;20220;-77
2022/02/02 21:35:04;;;;;;;20.23;14.47;;;8.80;99.90;;;;;;5077048;28;20174;-77
2022/02/02 21:37:32;;;;;;;22.88;13.93;;;8.80;99.90;;;;;;5063297;28;20174;-77
2022/02/02 21:40:15;;;;;;;20.52;13.88;;;8.90;99.90;;;;;;5056624;28;20186;-79
2022/02/02 21:42:42;;;;;;;20.98;14.20;;;8.80;99.90;;;;;;5056406;28;20590;-78
2022/02/02 21:45:08;;;;;;;19.73;14.05;;;8.80;99.90;;;;;;5056293;28;20211;-77
2022/02/02 21:47:33;;;;;;;20.15;13.88;;;8.80;99.90;;;;;;5056287;28;20546;-78
2022/02/02 21:50:02;;;;;;;23.17;15.40;;;8.70;99.90;;;;;;5055185;28;20178;-79
2022/02/02 21:52:32;;;;;;;23.05;16.63;;;8.70;99.90;;;;;;5055963;28;20297;-79
2022/02/02 21:54:57;;;;;;;19.17;14.50;;;8.80;99.90;;;;;;5055328;28;20167;-81
2022/02/02 21:57:23;;;;;;;23.30;16.00;;;8.80;99.90;;;;;;5056093;28;20277;-81
2022/02/02 21:59:49;;;;;;;33.90;17.20;;;8.70;99.90;;;;;;5038403;28;20191;-80
2022/02/02 22:02:15;;;;;;;22.30;15.67;;;8.70;99.90;;;;;;5055865;28;20365;-80
2022/02/02 22:04:40;;;;;;;25.10;16.80;;;8.70;99.90;;;;;;5056386;28;20935;-80
2022/02/02 22:07:06;;;;;;;22.30;15.33;;;8.70;99.90;;;;;;5069804;28;20186;-81
2022/02/02 22:09:32;;;;;;;25.07;16.40;;;8.70;99.90;;;;;;5055934;28;20192;-79
2022/02/02 22:11:57;;;;;;;23.63;16.07;;;8.70;99.90;;;;;;5056706;28;20732;-78
2022/02/02 22:14:25;;;;;;;25.40;17.73;;;8.60;99.90;;;;;;5066473;28;20185;-78
2022/02/02 22:16:52;;;;;;;25.50;16.85;;;8.70;99.90;;;;;;5055008;28;20188;-80
2022/02/02 22:19:18;;;;;;;27.65;16.88;;;8.70;99.90;;;;;;5056036;28;20179;-80
2022/02/02 22:21:44;;;;;;;25.83;17.30;;;8.70;99.90;;;;;;5054451;28;20197;-80
2022/02/02 22:24:10;;;;;;;28.15;18.35;;;8.60;99.90;;;;;;5056177;28;20231;-80
2022/02/02 22:26:36;;;;;;;26.13;17.20;;;8.60;99.90;;;;;;5054596;28;20178;-79
2022/02/02 22:29:03;;;;;;;27.05;15.88;;;8.60;99.90;;;;;;5056187;28;20271;-80
2022/02/02 22:31:28;;;;;;;22.20;15.30;;;8.60;99.90;;;;;;5055513;28;20216;-80
2022/02/02 22:33:54;;;;;;;28.23;16.70;;;8.60;99.90;;;;;;5055839;28;20214;-80
2022/02/02 22:36:20;;;;;;;26.03;17.40;;;8.60;99.90;;;;;;5055520;28;20280;-81
2022/02/02 22:38:46;;;;;;;35.23;18.83;;;8.50;99.90;;;;;;5055812;28;20518;-81
2022/02/02 22:41:13;;;;;;;30.55;19.55;;;8.60;99.90;;;;;;5054442;28;20516;-80
2022/02/02 22:43:45;;;;;;;26.63;16.95;;;8.60;99.90;;;;;;5055511;28;20186;-79
2022/02/02 22:46:12;;;;;;;33.15;20.55;;;8.60;99.90;;;;;;5058088;28;20176;-79
2022/02/02 22:48:39;;;;;;;31.33;18.35;;;8.50;99.90;;;;;;5075275;28;20698;-79
2022/02/02 22:51:05;;;;;;;33.05;18.27;;;8.50;99.90;;;;;;5075276;28;20276;-80
2022/02/02 22:53:31;;;;;;;30.10;18.57;;;8.50;99.90;;;;;;5074022;28;20617;-79
2022/02/02 22:55:57;;;;;;;25.52;16.55;;;8.40;99.90;;;;;;5075305;28;20652;-80
2022/02/02 22:58:22;;;;;;;29.57;18.73;;;8.50;99.90;;;;;;5075294;28;20188;-78
2022/02/02 23:00:49;;;;;;;27.90;16.83;;;8.40;99.90;;;;;;5074878;28;20173;-78
2022/02/02 23:03:16;;;;;;;30.17;17.85;;;8.50;99.90;;;;;;5073951;28;20201;-79
2022/02/02 23:05:45;;;;;;;26.33;17.50;;;8.50;99.90;;;;;;5074286;28;20276;-78
2022/02/02 23:08:14;;;;;;;31.90;18.10;;;8.50;99.90;;;;;;5039695;28;20667;-78
2022/02/02 23:10:41;;;;;;;31.30;17.42;;;8.50;99.90;;;;;;5033879;28;20179;-80
2022/02/02 23:13:08;;;;;;;29.27;16.27;;;8.50;99.90;;;;;;5034937;28;20202;-80
2022/02/02 23:15:41;;;;;;;26.85;17.10;;;8.50;99.90;;;;;;5035045;28;20202;-80
2022/02/02 23:18:23;;;;;;;27.75;16.20;;;8.50;99.90;;;;;;5035105;28;20181;-80
2022/02/02 23:20:55;;;;;;;25.70;15.93;;;8.50;99.90;;;;;;5034678;28;20224;-80
2022/02/02 23:23:26;;;;;;;30.75;19.05;;;8.50;99.90;;;;;;5073513;28;20211;-80
2022/02/02 23:25:53;;;;;;;31.42;17.80;;;8.60;99.90;;;;;;5074933;28;20165;-79
2022/02/02 23:28:24;;;;;;;29.55;17.10;;;8.60;99.90;;;;;;5074638;28;20200;-79
2022/02/02 23:30:50;;;;;;;31.10;17.52;;;8.50;99.90;;;;;;5073086;28;20184;-81
2022/02/02 23:33:16;;;;;;;29.80;16.97;;;8.60;99.90;;;;;;5071927;28;20781;-79
2022/02/02 23:35:42;;;;;;;31.50;18.13;;;8.60;99.90;;;;;;5063377;28;20460;-79
2022/02/02 23:38:09;;;;;;;30.08;18.33;;;8.60;99.90;;;;;;5054541;28;20186;-79
2022/02/02 23:41:12;;;;;;;29.55;16.88;;;8.60;99.90;;;;;;5054432;28;20178;-79
2022/02/02 23:43:22;;;;;;;34.42;18.17;;;8.70;99.90;;;;;;5054229;28;20251;-79
2022/02/02 23:46:05;;;;;;;34.15;19.45;;;8.60;99.90;;;;;;5055836;28;20193;-79
2022/02/02 23:48:32;;;;;;;25.60;16.45;;;8.70;99.90;;;;;;5074174;28;20176;-79
2022/02/02 23:51:04;;;;;;;26.70;17.35;;;8.70;99.90;;;;;;5073393;28;20252;-79
2022/02/02 23:53:31;;;;;;;32.45;17.38;;;8.70;99.90;;;;;;5072305;28;20221;-80
2022/02/02 23:56:11;;;;;;;31.52;17.80;;;8.60;99.90;;;;;;5074274;28;20249;-80
2022/02/02 23:58:43;;;;;;;27.73;17.58;;;8.60;99.90;;;;;;5074185;28;20172;-79
